KDYR

Dyersburg Regional Airport

Dyersburg, Tennessee, USA
METAR KDYR 230856Z AUTO 00000KT 10SM CLR 06/06 A3023 RMK AO2 SLP253 6//// T00610061 51001 PNO $
Observed Flight Rules
Oct-23 @ 08:56 UTC (44 minutes ago) Visual Flight Rules
Visibility Clouds
10 miles
  • Clear skies
Temperatures Readings
Current 6°C / 43°F
Dewpoint 6°C / 43°F
Humidity 100%
Altimeter 30.23" Hg
Pressure 1025.3 hPa
Elevation 103
METAR KDYR 230856Z AUTO 00000KT 10SM CLR 06/06 A3023 RMK AO2 SLP253 6//// T00610061 51001 PNO $
Observed Flight Rules
Oct-23 @ 08:56 UTC
(44 minutes ago)
VFR
Clouds
  • Clear skies
Temperature Dewpoint
6°C / 43°F 6°C / 43°F
Humidity Altimeter Pressure
100% 30.23" Hg 1025.3 hPa